Terminal Aerodrome Forecast
Issued by NWS

Current Version | Previous Version | Text Only | Print | Product List | Glossary Off
Versions: 1 2 3 4 5 6 7 8 9 10 11 12 13 14 15 16

000
FTUS41 KPBZ 251720
TAFMGW
TAF
KMGW 251720Z 2518/2618 18004KT P6SM SCT250
     FM260900 00000KT 3SM BR SKC
     FM261300 24004KT P6SM SCT040=

USA.gov is the U.S. government's official web portal to all federal, state and local government web resources and services.